This is the latest recevied weather packets stored in our database for station/object VU25RK-13. If no packets are shown the sender has not sent any weather packets the latest 10 day(s).
| Time | Temp. | Humidity | Pressure | Rain* | Wind** | Luminosity | Snow |
|---|---|---|---|---|---|---|---|
| 1777882240 | 34.44° C | 26% | 1011.9 hPa | - | - | - | - |
| 1777881039 | 34.44° C | 26% | 1011.9 hPa | - | - | - | - |
| 1777879840 | 34.44° C | 26% | 1011.9 hPa | - | - | - | - |
| 1777878638 | 33.89° C | 28% | 1012.8 hPa | - | - | - | - |
| 1777877438 | 33.89° C | 28% | 1012.5 hPa | - | - | - | - |
| 1777876238 | 33.33° C | 28% | 1012.5 hPa | - | - | - | - |
| 1777875758 | 32.78° C | 28% | 1012.5 hPa | - | - | - | - |
| 1777875724 | 32.78° C | 28% | 1012.5 hPa | - | - | - | - |
| 1777835705 | 23.89° C | 76% | 1010 hPa | - | - | - | - |
| 1777833904 | 25° C | 65% | 1010.9 hPa | - | - | - | - |
| 1777833014 | 25.56° C | 58% | 1011 hPa | - | - | - | - |
| 1777832104 | 25.56° C | 58% | 1011 hPa | - | - | - | - |
| 1777731117 | 28.89° C | 47% | 1009.7 hPa | - | - | - | - |
| 1777720213 | 33.89° C | 26% | 1008.9 hPa | - | - | - | - |
| 1777719309 | 33.89° C | 26% | 1008.9 hPa | - | - | - | - |
| 1777718413 | 33.89° C | 26% | 1008.9 hPa | - | - | - | - |
| 1777717507 | 33.89° C | 26% | 1008.9 hPa | - | - | - | - |
| 1777716613 | 33.89° C | 26% | 1009.5 hPa | - | - | - | - |
| 1777715705 | 33.89° C | 26% | 1009.5 hPa | - | - | - | - |
| 1777714809 | 34.44° C | 26% | 1009.5 hPa | - | - | - | - |
| 1777713904 | 34.44° C | 26% | 1009.5 hPa | - | - | - | - |
| 1777713008 | 34.44° C | 26% | 1010.2 hPa | - | - | - | - |
| 1777712103 | 34.44° C | 26% | 1010.2 hPa | - | - | - | - |
| 1777711208 | 34.44° C | 26% | 1010.2 hPa | - | - | - | - |
| 1777703996 | 32.22° C | 33% | 1012.3 hPa | - | - | - | - |
* Rain since midnight (hover to see other rain measurements)
** Current wind speed in m/s (hover to see current wind gust speed)